createdAt,value
2019-04-25T00:00:15.840Z,12.92
2019-04-25T00:02:44.743Z,12.80
2019-04-25T00:05:14.015Z,12.66
2019-04-25T00:07:43.041Z,12.56
2019-04-25T00:10:11.729Z,12.56
2019-04-25T00:12:42.373Z,12.51
2019-04-25T00:15:11.174Z,12.43
2019-04-25T00:17:38.605Z,12.36
2019-04-25T00:20:07.035Z,12.28
2019-04-25T00:22:47.507Z,12.17
2019-04-25T00:25:32.489Z,12.12
2019-04-25T00:27:59.839Z,12.13
2019-04-25T00:30:28.580Z,12.14
2019-04-25T00:32:55.453Z,12.10
2019-04-25T00:35:22.412Z,12.10
2019-04-25T00:37:49.867Z,12.08
2019-04-25T00:40:16.752Z,12.06
2019-04-25T00:42:44.880Z,11.99
2019-04-25T00:45:13.983Z,11.91
2019-04-25T00:47:42.447Z,11.84
2019-04-25T00:50:09.652Z,11.78
2019-04-25T00:52:37.093Z,11.75
2019-04-25T00:55:04.957Z,11.68
2019-04-25T00:57:32.830Z,11.59
2019-04-25T01:00:01.989Z,11.53
2019-04-25T01:02:31.509Z,11.50
2019-04-25T01:04:58.819Z,11.40
2019-04-25T01:07:25.872Z,11.32
2019-04-25T01:09:54.605Z,11.25
2019-04-25T01:12:24.821Z,11.20
2019-04-25T01:14:52.801Z,11.16
2019-04-25T01:17:22.740Z,11.13
2019-04-25T01:19:51.046Z,11.07
2019-04-25T01:22:18.019Z,11.05
2019-04-25T01:24:45.664Z,10.97
2019-04-25T01:27:13.490Z,10.89
2019-04-25T01:29:40.510Z,10.84
2019-04-25T01:32:09.242Z,10.80
2019-04-25T01:34:38.598Z,10.74
2019-04-25T01:37:07.841Z,10.70
2019-04-25T01:39:39.354Z,10.61
2019-04-25T01:42:11.832Z,10.54
2019-04-25T01:44:40.593Z,10.48
2019-04-25T01:47:08.229Z,10.43
2019-04-25T01:49:35.380Z,10.44
2019-04-25T01:52:03.536Z,10.46
2019-04-25T01:54:31.580Z,10.46
2019-04-25T01:56:59.334Z,10.44
2019-04-25T01:59:26.403Z,10.37
2019-04-25T02:01:55.373Z,10.23
2019-04-25T02:04:23.190Z,10.13
2019-04-25T02:06:51.368Z,10.09
2019-04-25T02:09:19.362Z,10.07
2019-04-25T02:11:50.944Z,10.06
2019-04-25T02:14:18.021Z,10.06
2019-04-25T02:16:45.500Z,10.08
2019-04-25T02:19:14.525Z,10.12
2019-04-25T02:21:43.443Z,10.14
2019-04-25T02:24:11.107Z,10.16
2019-04-25T02:26:39.012Z,10.14
2019-04-25T02:29:06.070Z,10.12
2019-04-25T02:31:34.723Z,10.08
2019-04-25T02:34:06.179Z,10.05
2019-04-25T02:36:34.481Z,10.03
2019-04-25T02:39:04.274Z,9.99
2019-04-25T02:41:30.848Z,9.90
2019-04-25T02:44:03.782Z,9.79
2019-04-25T02:46:36.851Z,9.73
2019-04-25T02:49:09.045Z,9.65
2019-04-25T02:51:35.768Z,9.57
2019-04-25T02:54:07.537Z,9.51
2019-04-25T02:56:37.743Z,9.52
2019-04-25T02:59:06.486Z,9.54
2019-04-25T03:01:34.214Z,9.57
2019-04-25T03:04:04.853Z,9.57
2019-04-25T03:06:31.672Z,9.57
2019-04-25T03:09:00.295Z,9.53
2019-04-25T03:11:28.141Z,9.49
2019-04-25T03:13:56.133Z,9.46
2019-04-25T03:16:25.110Z,9.43
2019-04-25T03:18:58.913Z,9.42
2019-04-25T03:21:31.521Z,9.36
2019-04-25T03:24:01.330Z,9.31
2019-04-25T03:26:39.671Z,9.29
2019-04-25T03:28:59.725Z,9.29
2019-04-25T03:31:27.693Z,9.29
2019-04-25T03:33:56.100Z,9.26
2019-04-25T03:36:23.881Z,9.23
2019-04-25T03:38:51.479Z,7.70
2019-04-25T03:41:19.113Z,9.16
2019-04-25T03:43:46.732Z,9.14
2019-04-25T03:46:14.397Z,9.11
2019-04-25T03:48:42.101Z,9.08
2019-04-25T03:51:12.250Z,9.05
2019-04-25T03:53:41.757Z,8.98
2019-04-25T03:56:10.406Z,8.85
2019-04-25T03:58:37.863Z,8.74
2019-04-25T04:01:06.969Z,8.64
2019-04-25T04:03:34.333Z,8.57
2019-04-25T04:06:01.999Z,8.54
2019-04-25T04:08:29.651Z,8.51
2019-04-25T04:10:57.245Z,8.46
2019-04-25T04:13:24.956Z,8.43
2019-04-25T04:15:53.301Z,8.39
2019-04-25T04:18:34.558Z,8.37
2019-04-25T04:21:20.619Z,8.36
2019-04-25T04:24:02.062Z,8.33
2019-04-25T04:26:29.771Z,8.28
2019-04-25T04:28:57.657Z,8.25
2019-04-25T04:31:25.513Z,8.27
2019-04-25T04:33:53.350Z,8.34
2019-04-25T04:36:21.063Z,8.41
2019-04-25T04:38:49.134Z,8.40
2019-04-25T04:41:17.846Z,8.39
2019-04-25T04:43:45.396Z,8.40
2019-04-25T04:46:14.175Z,8.42
2019-04-25T04:48:43.861Z,8.42
2019-04-25T04:51:11.235Z,8.40
2019-04-25T04:53:38.027Z,8.42
2019-04-25T04:56:05.408Z,8.45
2019-04-25T04:58:34.300Z,8.49
2019-04-25T05:01:01.842Z,8.57
2019-04-25T05:03:40.819Z,8.63
2019-04-25T05:06:25.180Z,8.69
2019-04-25T05:08:54.930Z,8.76
2019-04-25T05:11:25.197Z,8.86
2019-04-25T05:13:52.003Z,8.95
2019-04-25T05:16:19.843Z,9.03
2019-04-25T05:18:46.981Z,9.11
2019-04-25T05:21:15.657Z,9.19
2019-04-25T05:23:44.339Z,9.26
2019-04-25T05:26:12.206Z,9.34
2019-04-25T05:28:40.391Z,9.44
2019-04-25T05:31:09.492Z,9.53
2019-04-25T05:33:36.546Z,9.63
2019-04-25T05:36:05.961Z,9.72
2019-04-25T05:38:33.721Z,9.83
2019-04-25T05:41:03.983Z,8.51
2019-04-25T05:43:33.429Z,10.05
2019-04-25T05:46:01.118Z,10.16
2019-04-25T05:48:28.679Z,10.29
2019-04-25T05:50:56.622Z,10.39
2019-04-25T05:53:24.156Z,10.47
2019-04-25T05:55:52.063Z,10.56
2019-04-25T05:58:20.445Z,10.65
2019-04-25T06:00:48.326Z,10.74
2019-04-25T06:03:15.195Z,10.83
2019-04-25T06:05:43.463Z,10.94
2019-04-25T06:08:11.421Z,11.07
2019-04-25T06:10:45.049Z,11.23
2019-04-25T06:13:30.917Z,11.37
2019-04-25T06:16:00.168Z,11.49
2019-04-25T06:18:32.115Z,11.68
2019-04-25T06:21:03.027Z,11.85
2019-04-25T06:23:48.702Z,12.03
2019-04-25T06:26:26.734Z,12.14
2019-04-25T06:28:53.671Z,12.23
2019-04-25T06:31:16.401Z,12.30
2019-04-25T06:33:44.499Z,12.39
2019-04-25T06:36:11.278Z,12.44
2019-04-25T06:38:38.563Z,12.52
2019-04-25T06:41:06.428Z,12.61
2019-04-25T06:43:34.284Z,12.67
2019-04-25T06:46:20.205Z,12.73
2019-04-25T06:48:53.411Z,12.80
2019-04-25T06:51:22.422Z,12.87
2019-04-25T06:53:49.550Z,12.86
2019-04-25T06:56:17.231Z,12.87
2019-04-25T06:58:44.697Z,12.92
2019-04-25T07:01:13.485Z,12.98
2019-04-25T07:03:40.511Z,13.02
2019-04-25T07:06:07.838Z,13.11
2019-04-25T07:08:35.457Z,13.31
2019-04-25T07:11:03.916Z,13.55
2019-04-25T07:13:34.178Z,13.88
2019-04-25T07:16:00.586Z,14.27
2019-04-25T07:18:32.404Z,14.70
2019-04-25T07:20:57.061Z,15.10
2019-04-25T07:23:25.359Z,15.49
2019-04-25T07:25:54.451Z,15.74
2019-04-25T07:28:31.124Z,15.93
2019-04-25T07:31:06.855Z,16.45
2019-04-25T07:33:36.649Z,16.77
2019-04-25T07:36:04.226Z,17.04
2019-04-25T07:38:31.764Z,17.24
2019-04-25T07:40:58.946Z,17.53
2019-04-25T07:43:25.873Z,17.91
2019-04-25T07:45:53.533Z,18.23
2019-04-25T07:48:22.800Z,18.45
2019-04-25T07:50:50.489Z,18.67
2019-04-25T07:53:17.856Z,18.91
2019-04-25T07:55:45.468Z,19.08
2019-04-25T07:58:14.267Z,19.27
2019-04-25T08:00:42.048Z,19.48
2019-04-25T08:03:08.881Z,19.65
2019-04-25T08:05:36.630Z,19.98
2019-04-25T08:08:04.017Z,20.23
2019-04-25T08:10:34.847Z,20.33
2019-04-25T08:13:03.262Z,20.37
2019-04-25T08:15:38.992Z,20.46
2019-04-25T08:18:08.909Z,20.76
2019-04-25T08:20:37.015Z,21.07
2019-04-25T08:23:04.846Z,21.41
2019-04-25T08:25:33.460Z,20.62
2019-04-25T08:28:01.219Z,22.04
2019-04-25T08:30:28.014Z,22.27
2019-04-25T08:32:54.844Z,22.39
2019-04-25T08:35:23.981Z,22.49
2019-04-25T08:37:51.154Z,22.62
2019-04-25T08:40:19.165Z,22.81
2019-04-25T08:42:46.523Z,22.99
2019-04-25T08:45:13.937Z,23.20
2019-04-25T08:47:41.846Z,23.45
2019-04-25T08:50:26.893Z,23.56
2019-04-25T08:52:44.302Z,23.62
2019-04-25T08:55:28.599Z,23.76
2019-04-25T08:58:00.801Z,23.81
2019-04-25T09:00:36.987Z,23.79
2019-04-25T09:03:05.944Z,23.76
2019-04-25T09:05:36.454Z,23.86
2019-04-25T09:08:04.183Z,23.95
2019-04-25T09:10:32.723Z,24.12
2019-04-25T09:13:00.469Z,24.35
2019-04-25T09:15:27.663Z,24.55
2019-04-25T09:17:54.889Z,24.66
2019-04-25T09:20:23.529Z,24.76
2019-04-25T09:22:50.917Z,24.65
2019-04-25T09:25:17.991Z,24.69
2019-04-25T09:27:45.854Z,23.80
2019-04-25T09:30:14.465Z,24.97
2019-04-25T09:32:44.421Z,25.07
2019-04-25T09:35:11.176Z,25.08
2019-04-25T09:37:38.741Z,25.25
2019-04-25T09:40:11.210Z,25.45
2019-04-25T09:42:39.370Z,25.58
2019-04-25T09:45:09.476Z,25.72
2019-04-25T09:47:38.066Z,25.80
2019-04-25T09:50:07.401Z,25.86
2019-04-25T09:52:36.000Z,25.92
2019-04-25T09:55:07.693Z,26.05
2019-04-25T09:57:48.201Z,24.99
2019-04-25T10:00:17.382Z,26.00
2019-04-25T10:02:44.850Z,26.10
2019-04-25T10:05:11.731Z,26.02
2019-04-25T10:07:38.679Z,25.82
2019-04-25T10:10:06.396Z,23.67
2019-04-25T10:12:34.210Z,25.77
2019-04-25T10:15:04.622Z,25.80
2019-04-25T10:17:31.542Z,24.75
2019-04-25T10:19:59.082Z,25.66
2019-04-25T10:22:27.039Z,25.73
2019-04-25T10:25:00.215Z,25.84
2019-04-25T10:27:24.228Z,25.85
2019-04-25T10:29:56.321Z,25.89
2019-04-25T10:32:20.122Z,26.04
2019-04-25T10:34:46.992Z,26.14
2019-04-25T10:37:14.918Z,25.20
2019-04-25T10:39:43.566Z,26.23
2019-04-25T10:42:11.145Z,26.25
2019-04-25T10:44:39.250Z,26.26
2019-04-25T10:47:07.008Z,26.34
2019-04-25T10:49:34.470Z,26.48
2019-04-25T10:52:01.470Z,26.49
2019-04-25T10:54:28.525Z,26.59
2019-04-25T10:56:55.288Z,26.77
2019-04-25T10:59:23.617Z,26.86
2019-04-25T11:01:50.858Z,26.98
2019-04-25T11:04:22.260Z,27.04
2019-04-25T11:06:49.332Z,27.02
2019-04-25T11:09:19.623Z,27.10
2019-04-25T11:11:46.956Z,27.37
2019-04-25T11:14:14.257Z,27.47
2019-04-25T11:16:41.108Z,27.50
2019-04-25T11:19:07.928Z,27.41
2019-04-25T11:21:35.310Z,27.48
2019-04-25T11:24:04.091Z,27.54
2019-04-25T11:26:31.544Z,25.67
2019-04-25T11:28:58.657Z,27.38
2019-04-25T11:31:27.230Z,27.55
2019-04-25T11:33:54.575Z,27.71
2019-04-25T11:36:21.840Z,27.79
2019-04-25T11:39:07.956Z,27.91
2019-04-25T11:41:35.300Z,28.02
2019-04-25T11:44:03.483Z,28.15
2019-04-25T11:46:30.869Z,28.37
2019-04-25T11:48:58.118Z,28.39
2019-04-25T11:51:24.864Z,28.45
2019-04-25T11:53:51.863Z,28.66
2019-04-25T11:56:18.618Z,28.60
2019-04-25T11:58:47.551Z,28.60
2019-04-25T12:01:15.151Z,28.62
2019-04-25T12:03:42.084Z,27.57
2019-04-25T12:06:11.151Z,28.68
2019-04-25T12:08:38.448Z,28.88
2019-04-25T12:11:06.024Z,27.14
2019-04-25T12:13:34.532Z,28.72
2019-04-25T12:16:02.014Z,27.89
2019-04-25T12:18:29.079Z,29.22
2019-04-25T12:20:57.990Z,29.28
2019-04-25T12:23:24.976Z,29.37
2019-04-25T12:25:54.030Z,29.69
2019-04-25T12:28:20.816Z,29.85
2019-04-25T12:30:48.175Z,29.09
2019-04-25T12:33:20.920Z,29.95
2019-04-25T12:35:44.512Z,29.96
2019-04-25T12:38:11.510Z,30.04
2019-04-25T12:40:38.390Z,30.01
2019-04-25T12:43:05.435Z,30.26
2019-04-25T12:45:34.469Z,30.39
2019-04-25T12:48:06.230Z,30.40
2019-04-25T12:50:33.677Z,29.05
2019-04-25T12:53:00.617Z,29.90
2019-04-25T12:55:28.389Z,28.07
2019-04-25T12:57:56.531Z,30.08
2019-04-25T13:00:25.945Z,30.16
2019-04-25T13:02:54.005Z,30.28
2019-04-25T13:05:21.115Z,30.43
2019-04-25T13:07:48.228Z,30.66
2019-04-25T13:10:15.370Z,29.75
2019-04-25T13:12:44.283Z,30.36
2019-04-25T13:15:11.480Z,30.16
2019-04-25T13:17:38.401Z,30.22
2019-04-25T13:20:07.576Z,30.24
2019-04-25T13:22:34.904Z,30.08
2019-04-25T13:25:03.445Z,29.90
2019-04-25T13:27:44.816Z,29.96
2019-04-25T13:30:31.534Z,30.13
2019-04-25T13:33:09.333Z,30.08
2019-04-25T13:35:37.987Z,30.02
2019-04-25T13:38:05.057Z,30.03
2019-04-25T13:40:31.904Z,29.95
2019-04-25T13:42:58.752Z,29.81
2019-04-25T13:45:26.583Z,29.93
2019-04-25T13:47:53.758Z,29.07
2019-04-25T13:50:21.588Z,29.63
2019-04-25T13:52:48.974Z,29.44
2019-04-25T13:55:16.261Z,29.09
2019-04-25T13:57:42.983Z,28.90
2019-04-25T14:00:10.547Z,28.07
2019-04-25T14:02:37.378Z,27.68
2019-04-25T14:05:06.304Z,28.64
2019-04-25T14:07:33.283Z,28.59
2019-04-25T14:10:00.231Z,27.57
2019-04-25T14:12:28.917Z,28.56
2019-04-25T14:14:56.544Z,28.51
2019-04-25T14:17:35.674Z,28.37
2019-04-25T14:20:10.353Z,28.29
2019-04-25T14:22:37.325Z,28.15
2019-04-25T14:25:05.173Z,28.09
2019-04-25T14:27:33.957Z,28.03
2019-04-25T14:30:01.014Z,28.15
2019-04-25T14:32:28.845Z,28.24
2019-04-25T14:34:56.786Z,28.14
2019-04-25T14:37:26.358Z,28.06
2019-04-25T14:39:53.666Z,28.13
2019-04-25T14:42:22.113Z,28.19
2019-04-25T14:44:50.258Z,27.83
2019-04-25T14:47:17.348Z,27.73
2019-04-25T14:49:44.081Z,27.87
2019-04-25T14:52:11.326Z,28.02
2019-04-25T14:54:42.555Z,28.10
2019-04-25T14:57:14.188Z,28.20
2019-04-25T14:59:41.409Z,28.02
2019-04-25T15:02:08.325Z,28.04
2019-04-25T15:04:35.318Z,27.07
2019-04-25T15:07:02.265Z,27.15
2019-04-25T15:09:29.590Z,28.26
2019-04-25T15:11:56.317Z,28.12
2019-04-25T15:14:23.664Z,28.20
2019-04-25T15:16:50.817Z,28.27
2019-04-25T15:19:17.613Z,28.10
2019-04-25T15:21:44.417Z,28.05
2019-04-25T15:24:11.677Z,28.04
2019-04-25T15:26:40.362Z,28.04
2019-04-25T15:29:07.101Z,28.11
2019-04-25T15:31:33.819Z,28.14
2019-04-25T15:34:02.372Z,28.10
2019-04-25T15:36:37.717Z,28.05
2019-04-25T15:39:24.936Z,28.07
2019-04-25T15:41:56.404Z,28.01
2019-04-25T15:44:40.808Z,27.88
2019-04-25T15:47:09.498Z,27.79
2019-04-25T15:49:36.996Z,27.79
2019-04-25T15:52:05.735Z,27.79
2019-04-25T15:54:33.872Z,26.25
2019-04-25T15:57:00.706Z,27.54
2019-04-25T15:59:29.030Z,27.44
2019-04-25T16:02:07.483Z,27.28
2019-04-25T16:04:25.715Z,25.20
2019-04-25T16:06:52.711Z,27.18
2019-04-25T16:09:19.514Z,27.21
2019-04-25T16:11:46.802Z,27.13
2019-04-25T16:14:13.521Z,27.16
2019-04-25T16:16:40.455Z,26.97
2019-04-25T16:19:07.763Z,26.78
2019-04-25T16:21:35.471Z,26.66
2019-04-25T16:24:02.411Z,26.37
2019-04-25T16:26:29.630Z,26.37
2019-04-25T16:28:56.419Z,26.31
2019-04-25T16:31:25.186Z,26.36
2019-04-25T16:33:52.366Z,26.37
2019-04-25T16:36:19.412Z,26.31
2019-04-25T16:38:46.461Z,26.22
2019-04-25T16:41:14.231Z,26.10
2019-04-25T16:43:43.246Z,25.99
2019-04-25T16:46:09.949Z,25.91
2019-04-25T16:48:37.268Z,25.92
2019-04-25T16:51:04.400Z,25.90
2019-04-25T16:53:31.435Z,25.93
2019-04-25T16:55:59.476Z,25.86
2019-04-25T16:58:27.049Z,25.82
2019-04-25T17:01:00.847Z,25.77
2019-04-25T17:03:29.953Z,25.61
2019-04-25T17:05:57.549Z,25.53
2019-04-25T17:08:24.596Z,25.44
2019-04-25T17:10:51.424Z,25.33
2019-04-25T17:13:18.593Z,24.19
2019-04-25T17:15:56.156Z,25.07
2019-04-25T17:18:27.497Z,23.87
2019-04-25T17:20:59.292Z,24.84
2019-04-25T17:23:26.018Z,24.75
2019-04-25T17:25:53.099Z,24.66
2019-04-25T17:28:19.920Z,24.57
2019-04-25T17:30:48.902Z,24.46
2019-04-25T17:33:20.519Z,22.16
2019-04-25T17:36:06.198Z,24.26
2019-04-25T17:38:40.331Z,24.19
2019-04-25T17:41:07.474Z,24.07
2019-04-25T17:43:34.957Z,23.95
2019-04-25T17:46:02.800Z,23.84
2019-04-25T17:48:29.827Z,23.73
2019-04-25T17:50:57.095Z,23.64
2019-04-25T17:53:23.828Z,23.53
2019-04-25T17:55:50.989Z,23.44
2019-04-25T17:58:18.602Z,23.37
2019-04-25T18:00:47.321Z,23.30
2019-04-25T18:03:14.809Z,23.23
2019-04-25T18:05:41.640Z,23.13
2019-04-25T18:08:08.874Z,23.05
2019-04-25T18:10:36.157Z,21.31
2019-04-25T18:13:03.604Z,22.88
2019-04-25T18:15:49.202Z,22.79
2019-04-25T18:18:20.691Z,22.71
2019-04-25T18:20:47.659Z,22.58
2019-04-25T18:23:17.128Z,22.49
2019-04-25T18:25:46.107Z,22.41
2019-04-25T18:28:17.775Z,22.32
2019-04-25T18:30:46.191Z,22.22
2019-04-25T18:33:20.450Z,22.13
2019-04-25T18:35:49.191Z,20.84
2019-04-25T18:38:27.028Z,19.93
2019-04-25T18:41:05.439Z,21.86
2019-04-25T18:43:46.937Z,21.71
2019-04-25T18:46:18.579Z,21.63
2019-04-25T18:48:45.396Z,21.49
2019-04-25T18:51:12.093Z,21.43
2019-04-25T18:53:47.367Z,21.38
2019-04-25T18:56:16.791Z,19.47
2019-04-25T18:59:03.414Z,21.19
2019-04-25T19:01:48.725Z,21.07
2019-04-25T19:04:17.976Z,21.01
2019-04-25T19:06:56.165Z,20.92
2019-04-25T19:09:13.428Z,20.82
2019-04-25T19:11:40.902Z,20.77
2019-04-25T19:14:07.880Z,20.70
2019-04-25T19:16:34.810Z,20.61
2019-04-25T19:19:01.723Z,20.52
2019-04-25T19:21:29.138Z,20.45
2019-04-25T19:23:57.159Z,18.60
2019-04-25T19:26:24.040Z,20.36
2019-04-25T19:28:52.053Z,20.29
2019-04-25T19:31:18.876Z,20.25
2019-04-25T19:33:45.612Z,20.18
2019-04-25T19:36:12.531Z,20.12
2019-04-25T19:38:40.657Z,20.06
2019-04-25T19:41:12.617Z,19.99
2019-04-25T19:43:44.568Z,19.93
2019-04-25T19:46:11.417Z,18.67
2019-04-25T19:48:38.437Z,19.80
2019-04-25T19:51:05.509Z,19.78
2019-04-25T19:53:32.426Z,19.72
2019-04-25T19:55:59.188Z,19.67
2019-04-25T19:58:26.228Z,19.60
2019-04-25T20:00:53.150Z,19.53
2019-04-25T20:03:21.813Z,19.48
2019-04-25T20:05:56.600Z,19.45
2019-04-25T20:08:28.158Z,19.39
2019-04-25T20:10:56.871Z,19.36
2019-04-25T20:13:24.450Z,19.29
2019-04-25T20:15:51.785Z,19.24
2019-04-25T20:18:18.837Z,18.29
2019-04-25T20:20:46.050Z,19.16
2019-04-25T20:23:13.348Z,19.14
2019-04-25T20:25:40.354Z,19.13
2019-04-25T20:28:07.056Z,19.09
2019-04-25T20:30:33.793Z,19.05
2019-04-25T20:33:01.258Z,18.97
2019-04-25T20:35:28.117Z,18.92
2019-04-25T20:37:55.628Z,18.89
2019-04-25T20:40:22.779Z,18.87
2019-04-25T20:42:49.858Z,18.81
2019-04-25T20:45:17.120Z,17.51
2019-04-25T20:47:44.426Z,18.74
2019-04-25T20:50:11.278Z,18.72
2019-04-25T20:52:38.307Z,18.66
2019-04-25T20:55:07.370Z,18.61
2019-04-25T20:57:34.410Z,18.57
2019-04-25T21:00:01.136Z,18.52
2019-04-25T21:02:28.391Z,18.47
2019-04-25T21:04:55.264Z,18.45
2019-04-25T21:07:22.062Z,18.45
2019-04-25T21:09:50.017Z,18.39
2019-04-25T21:12:17.123Z,18.35
2019-04-25T21:14:54.707Z,18.30
2019-04-25T21:17:32.567Z,18.27
2019-04-25T21:20:00.781Z,18.28
2019-04-25T21:22:27.597Z,18.26
2019-04-25T21:24:55.677Z,18.24
2019-04-25T21:27:22.644Z,18.24
2019-04-25T21:29:49.487Z,18.22
2019-04-25T21:32:17.947Z,18.17
2019-04-25T21:34:45.244Z,18.15
2019-04-25T21:37:12.547Z,18.12
2019-04-25T21:39:41.877Z,18.10
2019-04-25T21:42:11.810Z,18.09
2019-04-25T21:44:39.025Z,18.08
2019-04-25T21:47:06.093Z,18.08
2019-04-25T21:49:33.556Z,18.09
2019-04-25T21:52:01.186Z,18.10
2019-04-25T21:54:27.995Z,18.12
2019-04-25T21:56:57.427Z,18.15
2019-04-25T21:59:24.486Z,18.16
2019-04-25T22:01:51.657Z,17.37
2019-04-25T22:04:18.905Z,18.18
2019-04-25T22:06:46.378Z,18.18
2019-04-25T22:09:18.617Z,18.18
2019-04-25T22:11:45.727Z,18.17
2019-04-25T22:14:13.381Z,18.14
2019-04-25T22:16:40.613Z,18.13
2019-04-25T22:19:09.888Z,18.12
2019-04-25T22:21:38.243Z,18.10
2019-04-25T22:24:11.190Z,18.06
2019-04-25T22:26:35.422Z,18.01
2019-04-25T22:29:10.706Z,17.95
2019-04-25T22:31:35.183Z,17.89
2019-04-25T22:34:08.691Z,17.83
2019-04-25T22:36:35.717Z,17.80
2019-04-25T22:39:11.128Z,15.51
2019-04-25T22:41:46.667Z,17.69
2019-04-25T22:44:14.318Z,17.61
2019-04-25T22:46:41.931Z,17.57
2019-04-25T22:49:08.944Z,17.50
2019-04-25T22:51:36.081Z,17.47
2019-04-25T22:54:03.754Z,17.43
2019-04-25T22:56:30.809Z,17.37
2019-04-25T22:58:57.744Z,17.32
2019-04-25T23:01:32.365Z,17.31
2019-04-25T23:04:07.346Z,17.27
2019-04-25T23:06:34.564Z,17.23
2019-04-25T23:09:02.667Z,17.18
2019-04-25T23:11:29.880Z,17.09
2019-04-25T23:13:57.955Z,17.04
2019-04-25T23:16:25.231Z,17.04
2019-04-25T23:18:51.939Z,17.10
2019-04-25T23:21:18.879Z,17.18
2019-04-25T23:23:46.484Z,17.27
2019-04-25T23:26:21.308Z,17.36
2019-04-25T23:28:49.380Z,17.42
2019-04-25T23:31:18.553Z,17.46
2019-04-25T23:33:46.156Z,17.45
2019-04-25T23:36:13.348Z,17.40
2019-04-25T23:38:40.168Z,16.04
2019-04-25T23:41:09.319Z,17.30
2019-04-25T23:43:37.342Z,17.24
2019-04-25T23:46:04.185Z,17.15
2019-04-25T23:48:31.645Z,17.08
2019-04-25T23:50:58.456Z,17.00
2019-04-25T23:53:26.135Z,16.93
2019-04-25T23:55:52.864Z,16.58
2019-04-25T23:58:19.998Z,16.79
